createdAt,value
2023-01-07T00:00:39.848Z,88802.00
2023-01-07T00:01:39.769Z,88802.00
2023-01-07T00:02:39.787Z,88802.00
2023-01-07T00:03:39.774Z,88802.00
2023-01-07T00:04:39.688Z,88799.00
2023-01-07T00:05:39.738Z,88797.00
2023-01-07T00:06:39.704Z,88795.00
2023-01-07T00:07:39.628Z,88797.00
2023-01-07T00:08:39.595Z,88797.00
2023-01-07T00:09:39.566Z,88797.00
2023-01-07T00:10:39.569Z,88789.00
2023-01-07T00:11:39.517Z,88793.00
2023-01-07T00:12:39.485Z,88793.00
2023-01-07T00:13:39.456Z,88791.00
2023-01-07T00:14:39.432Z,88789.00
2023-01-07T00:15:39.428Z,88787.00
2023-01-07T00:16:39.387Z,88781.00
2023-01-07T00:17:39.361Z,88785.00
2023-01-07T00:18:39.343Z,88785.00
2023-01-07T00:19:39.305Z,88783.00
2023-01-07T00:20:39.283Z,88785.00
2023-01-07T00:21:39.347Z,88785.00
2023-01-07T00:22:39.245Z,88781.00
2023-01-07T00:23:39.222Z,88781.00
2023-01-07T00:24:39.212Z,88787.00
2023-01-07T00:25:39.175Z,88785.00
2023-01-07T00:26:39.183Z,88785.00
2023-01-07T00:27:39.143Z,88781.00
2023-01-07T00:28:39.127Z,88783.00
2023-01-07T00:29:39.101Z,88783.00
2023-01-07T00:30:39.081Z,88785.00
2023-01-07T00:31:39.132Z,88783.00
2023-01-07T00:33:39.013Z,88781.00
2023-01-07T00:34:39.027Z,88781.00
2023-01-07T00:35:38.968Z,88781.00
2023-01-07T00:36:38.943Z,88779.00
2023-01-07T00:37:39.006Z,88775.00
2023-01-07T00:38:38.895Z,88779.00
2023-01-07T00:39:40.606Z,88779.00
2023-01-07T00:40:38.841Z,88779.00
2023-01-07T00:41:38.815Z,88781.00
2023-01-07T00:42:38.803Z,88779.00
2023-01-07T00:43:38.763Z,88775.00
2023-01-07T00:44:38.738Z,88775.00
2023-01-07T00:45:38.709Z,88775.00
2023-01-07T00:46:38.692Z,88775.00
2023-01-07T00:47:38.652Z,88777.00
2023-01-07T00:48:38.636Z,88775.00
2023-01-07T00:49:38.602Z,88771.00
2023-01-07T00:50:38.585Z,88775.00
2023-01-07T00:51:38.564Z,88771.00
2023-01-07T00:52:38.539Z,88775.00
2023-01-07T00:53:38.613Z,88773.00
2023-01-07T00:54:38.500Z,88771.00
2023-01-07T00:55:38.484Z,88771.00
2023-01-07T00:56:38.468Z,88765.00
2023-01-07T00:57:38.454Z,88771.00
2023-01-07T00:58:38.446Z,88771.00
2023-01-07T00:59:38.432Z,88767.00
2023-01-07T01:00:38.448Z,88771.00
2023-01-07T01:01:38.587Z,88767.00
2023-01-07T01:02:38.391Z,88763.00
2023-01-07T01:03:38.402Z,88763.00
2023-01-07T01:04:38.339Z,88759.00
2023-01-07T01:05:38.313Z,88761.00
2023-01-07T01:06:38.300Z,88757.00
2023-01-07T01:07:38.278Z,88753.00
2023-01-07T01:08:38.285Z,88755.00
2023-01-07T01:09:38.364Z,88757.00
2023-01-07T01:11:01.203Z,88761.00
2023-01-07T01:11:38.243Z,88763.00
2023-01-07T01:12:38.206Z,88751.00
2023-01-07T01:13:38.191Z,88761.00
2023-01-07T01:14:38.171Z,88765.00
2023-01-07T01:15:38.146Z,88761.00
2023-01-07T01:16:38.185Z,88757.00
2023-01-07T01:17:38.190Z,88761.00
2023-01-07T01:18:38.108Z,88765.00
2023-01-07T01:19:38.086Z,88765.00
2023-01-07T01:20:38.056Z,88765.00
2023-01-07T01:21:38.063Z,88767.00
2023-01-07T01:22:38.026Z,88757.00
2023-01-07T01:23:38.032Z,88759.00
2023-01-07T01:24:37.988Z,88759.00
2023-01-07T01:25:38.068Z,88765.00
2023-01-07T01:26:37.969Z,88755.00
2023-01-07T01:27:37.951Z,88761.00
2023-01-07T01:28:37.933Z,88751.00
2023-01-07T01:29:37.922Z,88749.00
2023-01-07T01:30:37.905Z,88755.00
2023-01-07T01:31:37.912Z,88763.00
2023-01-07T01:32:37.857Z,88765.00
2023-01-07T01:33:37.864Z,88747.00
2023-01-07T01:34:37.815Z,88757.00
2023-01-07T01:35:37.801Z,88759.00
2023-01-07T01:36:37.786Z,88761.00
2023-01-07T01:37:37.765Z,88761.00
2023-01-07T01:38:37.747Z,88757.00
2023-01-07T01:39:37.733Z,88749.00
2023-01-07T01:40:37.712Z,88757.00
2023-01-07T01:41:37.799Z,88763.00
2023-01-07T01:42:37.689Z,88757.00
2023-01-07T01:43:37.688Z,88753.00
2023-01-07T01:44:37.668Z,88753.00
2023-01-07T01:45:37.639Z,88753.00
2023-01-07T01:46:37.705Z,88757.00
2023-01-07T01:47:37.616Z,88759.00
2023-01-07T01:48:37.586Z,88759.00
2023-01-07T01:49:37.579Z,88759.00
2023-01-07T01:50:37.547Z,88751.00
2023-01-07T01:51:37.538Z,88749.00
2023-01-07T01:52:37.516Z,88753.00
2023-01-07T01:53:37.495Z,88751.00
2023-01-07T01:54:37.481Z,88751.00
2023-01-07T01:55:37.450Z,88751.00
2023-01-07T01:56:37.426Z,88747.00
2023-01-07T01:57:37.500Z,88751.00
2023-01-07T01:58:37.397Z,88749.00
2023-01-07T01:59:37.376Z,88753.00
2023-01-07T02:00:37.405Z,88749.00
2023-01-07T02:01:37.537Z,88749.00
2023-01-07T02:02:37.348Z,88744.00
2023-01-07T02:03:37.300Z,88747.00
2023-01-07T02:04:37.283Z,88747.00
2023-01-07T02:05:39.827Z,88747.00
2023-01-07T02:06:37.234Z,88745.00
2023-01-07T02:07:37.218Z,88736.00
2023-01-07T02:08:37.216Z,88745.00
2023-01-07T02:09:37.191Z,88740.00
2023-01-07T02:10:37.164Z,88740.00
2023-01-07T02:11:37.149Z,88736.00
2023-01-07T02:12:37.133Z,88736.00
2023-01-07T02:13:37.210Z,88732.00
2023-01-07T02:14:37.110Z,88734.00
2023-01-07T02:15:37.096Z,88734.00
2023-01-07T02:16:37.117Z,88732.00
2023-01-07T02:17:37.059Z,88719.00
2023-01-07T02:18:37.039Z,88715.00
2023-01-07T02:19:37.033Z,88713.00
2023-01-07T02:20:37.004Z,88721.00
2023-01-07T02:21:36.998Z,88719.00
2023-01-07T02:22:36.960Z,88717.00
2023-01-07T02:23:36.965Z,88713.00
2023-01-07T02:24:36.921Z,88719.00
2023-01-07T02:25:36.901Z,88711.00
2023-01-07T02:26:36.906Z,88713.00
2023-01-07T02:27:36.856Z,88717.00
2023-01-07T02:28:36.846Z,88715.00
2023-01-07T02:29:36.828Z,88711.00
2023-01-07T02:30:36.798Z,88709.00
2023-01-07T02:31:36.866Z,88713.00
2023-01-07T02:32:36.773Z,88711.00
2023-01-07T02:33:36.759Z,88709.00
2023-01-07T02:34:36.737Z,88703.00
2023-01-07T02:35:36.718Z,88699.00
2023-01-07T02:36:36.707Z,88709.00
2023-01-07T02:37:36.700Z,88709.00
2023-01-07T02:38:36.665Z,88703.00
2023-01-07T02:39:36.651Z,88701.00
2023-01-07T02:40:36.648Z,88699.00
2023-01-07T02:41:36.628Z,88695.00
2023-01-07T02:42:36.622Z,88697.00
2023-01-07T02:43:36.607Z,88701.00
2023-01-07T02:44:36.596Z,88703.00
2023-01-07T02:45:36.714Z,88699.00
2023-01-07T02:46:36.570Z,88695.00
2023-01-07T02:47:36.555Z,88693.00
2023-01-07T02:48:36.540Z,88701.00
2023-01-07T02:49:36.537Z,88697.00
2023-01-07T02:50:36.516Z,88701.00
2023-01-07T02:51:36.500Z,88699.00
2023-01-07T02:52:36.487Z,88695.00
2023-01-07T02:53:36.479Z,88697.00
2023-01-07T02:54:36.454Z,88695.00
2023-01-07T02:55:36.447Z,88695.00
2023-01-07T02:56:36.427Z,88697.00
2023-01-07T02:57:36.409Z,88693.00
2023-01-07T02:58:36.393Z,88689.00
2023-01-07T02:59:36.371Z,88691.00
2023-01-07T03:00:36.372Z,88695.00
2023-01-07T03:01:36.533Z,88697.00
2023-01-07T03:02:36.315Z,88695.00
2023-01-07T03:03:36.299Z,88689.00
2023-01-07T03:04:36.280Z,88691.00
2023-01-07T03:05:36.260Z,88689.00
2023-01-07T03:06:36.235Z,88695.00
2023-01-07T03:07:36.216Z,88689.00
2023-01-07T03:08:36.199Z,88689.00
2023-01-07T03:09:36.204Z,88689.00
2023-01-07T03:10:36.174Z,88695.00
2023-01-07T03:11:36.171Z,88693.00
2023-01-07T03:12:36.152Z,88689.00
2023-01-07T03:13:36.149Z,88689.00
2023-01-07T03:14:36.121Z,88687.00
2023-01-07T03:15:36.086Z,88687.00
2023-01-07T03:16:36.126Z,88687.00
2023-01-07T03:17:36.126Z,88685.00
2023-01-07T03:18:36.006Z,88685.00
2023-01-07T03:19:35.994Z,88687.00
2023-01-07T03:20:35.976Z,88689.00
2023-01-07T03:21:35.951Z,88693.00
2023-01-07T03:22:35.914Z,88689.00
2023-01-07T03:23:35.901Z,88683.00
2023-01-07T03:24:35.880Z,88687.00
2023-01-07T03:25:35.860Z,88685.00
2023-01-07T03:26:35.842Z,88691.00
2023-01-07T03:27:35.815Z,88693.00
2023-01-07T03:28:35.794Z,88685.00
2023-01-07T03:29:35.792Z,88687.00
2023-01-07T03:30:35.753Z,88685.00
2023-01-07T03:31:35.756Z,88687.00
2023-01-07T03:32:35.720Z,88693.00
2023-01-07T03:33:35.798Z,88687.00
2023-01-07T03:34:35.672Z,88687.00
2023-01-07T03:35:35.657Z,88687.00
2023-01-07T03:36:35.635Z,88687.00
2023-01-07T03:37:35.625Z,88685.00
2023-01-07T03:38:35.597Z,88689.00
2023-01-07T03:39:35.584Z,88685.00
2023-01-07T03:40:35.572Z,88685.00
2023-01-07T03:41:35.551Z,88683.00
2023-01-07T03:42:35.535Z,88681.00
2023-01-07T03:43:35.532Z,88679.00
2023-01-07T03:44:35.536Z,88676.00
2023-01-07T03:45:35.519Z,88677.00
2023-01-07T03:46:35.468Z,88677.00
2023-01-07T03:47:35.454Z,88674.00
2023-01-07T03:48:35.435Z,88677.00
2023-01-07T03:49:35.514Z,88679.00
2023-01-07T03:50:35.387Z,88683.00
2023-01-07T03:51:35.383Z,88676.00
2023-01-07T03:52:35.368Z,88679.00
2023-01-07T03:53:35.362Z,88674.00
2023-01-07T03:54:35.332Z,88676.00
2023-01-07T03:55:35.401Z,88679.00
2023-01-07T03:56:35.314Z,88679.00
2023-01-07T03:57:35.284Z,88679.00
2023-01-07T03:58:35.262Z,88677.00
2023-01-07T03:59:35.249Z,88670.00
2023-01-07T04:00:35.236Z,88668.00
2023-01-07T04:01:35.322Z,88677.00
2023-01-07T04:02:35.199Z,88676.00
2023-01-07T04:03:35.189Z,88666.00
2023-01-07T04:04:35.267Z,88668.00
2023-01-07T04:05:35.246Z,88674.00
2023-01-07T04:06:35.137Z,88670.00
2023-01-07T04:07:35.114Z,88674.00
2023-01-07T04:08:35.094Z,88672.00
2023-01-07T04:09:35.076Z,88666.00
2023-01-07T04:10:35.074Z,88664.00
2023-01-07T04:11:35.052Z,88660.00
2023-01-07T04:12:35.043Z,88664.00
2023-01-07T04:13:35.018Z,88668.00
2023-01-07T04:14:35.023Z,88666.00
2023-01-07T04:15:35.001Z,88664.00
2023-01-07T04:16:35.056Z,88662.00
2023-01-07T04:17:34.973Z,88664.00
2023-01-07T04:18:34.945Z,88654.00
2023-01-07T04:19:34.914Z,88660.00
2023-01-07T04:20:34.912Z,88664.00
2023-01-07T04:21:34.975Z,88652.00
2023-01-07T04:22:34.870Z,88658.00
2023-01-07T04:23:34.851Z,88658.00
2023-01-07T04:24:34.845Z,88660.00
2023-01-07T04:25:34.824Z,88660.00
2023-01-07T04:26:34.816Z,88654.00
2023-01-07T04:27:34.795Z,88650.00
2023-01-07T04:28:34.778Z,88652.00
2023-01-07T04:29:34.757Z,88654.00
2023-01-07T04:30:34.792Z,88654.00
2023-01-07T04:31:34.720Z,88650.00
2023-01-07T04:32:34.730Z,88644.00
2023-01-07T04:33:34.684Z,88650.00
2023-01-07T04:34:34.680Z,88648.00
2023-01-07T04:35:34.659Z,88640.00
2023-01-07T04:36:34.631Z,88646.00
2023-01-07T04:37:34.708Z,88644.00
2023-01-07T04:38:34.606Z,88644.00
2023-01-07T04:39:34.578Z,88650.00
2023-01-07T04:40:34.581Z,88640.00
2023-01-07T04:41:34.547Z,88640.00
2023-01-07T04:42:34.535Z,88642.00
2023-01-07T04:43:34.506Z,88636.00
2023-01-07T04:44:34.486Z,88642.00
2023-01-07T04:45:34.482Z,88644.00
2023-01-07T04:46:34.512Z,88642.00
2023-01-07T04:47:34.432Z,88630.00
2023-01-07T04:48:34.422Z,88630.00
2023-01-07T04:49:34.389Z,88632.00
2023-01-07T04:50:34.379Z,88624.00
2023-01-07T04:51:34.352Z,88626.00
2023-01-07T04:52:34.330Z,88628.00
2023-01-07T04:53:34.415Z,88622.00
2023-01-07T04:54:34.326Z,88622.00
2023-01-07T04:55:34.273Z,88628.00
2023-01-07T04:56:34.264Z,88630.00
2023-01-07T04:57:34.242Z,88621.00
2023-01-07T04:58:34.226Z,88626.00
2023-01-07T04:59:34.219Z,88624.00
2023-01-07T05:00:34.193Z,88624.00
2023-01-07T05:01:34.376Z,88617.00
2023-01-07T05:02:34.160Z,88622.00
2023-01-07T05:03:34.140Z,88622.00
2023-01-07T05:04:34.172Z,88621.00
2023-01-07T05:05:34.117Z,88622.00
2023-01-07T05:06:34.084Z,88619.00
2023-01-07T05:07:34.074Z,88619.00
2023-01-07T05:08:34.055Z,88621.00
2023-01-07T05:09:34.116Z,88613.00
2023-01-07T05:10:34.030Z,88611.00
2023-01-07T05:11:34.007Z,88619.00
2023-01-07T05:12:33.977Z,88619.00
2023-01-07T05:13:33.964Z,88617.00
2023-01-07T05:14:33.943Z,88613.00
2023-01-07T05:15:33.925Z,88613.00
2023-01-07T05:16:33.988Z,88617.00
2023-01-07T05:17:33.891Z,88611.00
2023-01-07T05:18:33.887Z,88613.00
2023-01-07T05:19:34.849Z,88611.00
2023-01-07T05:20:33.859Z,88611.00
2023-01-07T05:21:33.843Z,88605.00
2023-01-07T05:22:33.836Z,88607.00
2023-01-07T05:23:33.808Z,88603.00
2023-01-07T05:24:33.799Z,88599.00
2023-01-07T05:25:33.866Z,88609.00
2023-01-07T05:26:33.757Z,88601.00
2023-01-07T05:27:33.743Z,88603.00
2023-01-07T05:28:33.722Z,88605.00
2023-01-07T05:29:33.700Z,88597.00
2023-01-07T05:30:33.702Z,88603.00
2023-01-07T05:31:33.682Z,88599.00
2023-01-07T05:32:33.658Z,88593.00
2023-01-07T05:33:33.622Z,88597.00
2023-01-07T05:34:33.598Z,88595.00
2023-01-07T05:35:33.584Z,88597.00
2023-01-07T05:36:33.562Z,88597.00
2023-01-07T05:37:33.537Z,88599.00
2023-01-07T05:38:33.538Z,88591.00
2023-01-07T05:39:33.498Z,88599.00
2023-01-07T05:40:33.481Z,88601.00
2023-01-07T05:41:33.559Z,88597.00
2023-01-07T05:42:33.449Z,88595.00
2023-01-07T05:43:33.427Z,88599.00
2023-01-07T05:44:33.417Z,88603.00
2023-01-07T05:45:33.392Z,88603.00
2023-01-07T05:46:33.447Z,88601.00
2023-01-07T05:47:33.354Z,88595.00
2023-01-07T05:48:33.342Z,88593.00
2023-01-07T05:49:33.341Z,88593.00
2023-01-07T05:50:33.310Z,88591.00
2023-01-07T05:51:33.301Z,88587.00
2023-01-07T05:52:33.269Z,88593.00
2023-01-07T05:53:33.253Z,88583.00
2023-01-07T05:54:33.241Z,88595.00
2023-01-07T05:55:33.212Z,88595.00
2023-01-07T05:56:33.195Z,88585.00
2023-01-07T05:57:33.280Z,88587.00
2023-01-07T05:58:33.160Z,88591.00
2023-01-07T05:59:33.146Z,88587.00
2023-01-07T06:00:33.128Z,88589.00
2023-01-07T06:01:33.162Z,88591.00
2023-01-07T06:02:33.093Z,88593.00
2023-01-07T06:03:33.110Z,88591.00
2023-01-07T06:04:33.097Z,88597.00
2023-01-07T06:05:33.054Z,88595.00
2023-01-07T06:06:33.023Z,88593.00
2023-01-07T06:07:32.998Z,88585.00
2023-01-07T06:08:32.985Z,88591.00
2023-01-07T06:09:32.964Z,88591.00
2023-01-07T06:10:32.946Z,88591.00
2023-01-07T06:11:32.927Z,88599.00
2023-01-07T06:12:32.904Z,88597.00
2023-01-07T06:13:32.896Z,88595.00
2023-01-07T06:14:32.877Z,88589.00
2023-01-07T06:15:32.869Z,88589.00
2023-01-07T06:16:32.836Z,88589.00
2023-01-07T06:17:32.811Z,88591.00
2023-01-07T06:18:32.890Z,88589.00
2023-01-07T06:19:32.779Z,88583.00
2023-01-07T06:20:32.764Z,88581.00
2023-01-07T06:21:32.736Z,88591.00
2023-01-07T06:22:32.726Z,88591.00
2023-01-07T06:23:32.707Z,88591.00
2023-01-07T06:24:32.678Z,88593.00
2023-01-07T06:25:32.670Z,88591.00
2023-01-07T06:26:32.646Z,88591.00
2023-01-07T06:27:32.631Z,88589.00
2023-01-07T06:28:32.613Z,88587.00
2023-01-07T06:29:32.681Z,88589.00
2023-01-07T06:30:32.590Z,88591.00
2023-01-07T06:31:32.746Z,88591.00
2023-01-07T06:32:32.546Z,88589.00
2023-01-07T06:33:33.597Z,88583.00
2023-01-07T06:34:32.517Z,88585.00
2023-01-07T06:35:32.487Z,88587.00
2023-01-07T06:36:32.473Z,88587.00
2023-01-07T06:37:32.451Z,88591.00
2023-01-07T06:38:32.434Z,88585.00
2023-01-07T06:39:32.406Z,88587.00
2023-01-07T06:40:32.397Z,88585.00
2023-01-07T06:41:32.366Z,88579.00
2023-01-07T06:42:32.355Z,88579.00
2023-01-07T06:43:32.328Z,88579.00
2023-01-07T06:44:32.315Z,88581.00
2023-01-07T06:45:32.390Z,88583.00
2023-01-07T06:46:32.285Z,88585.00
2023-01-07T06:47:32.260Z,88577.00
2023-01-07T06:48:32.239Z,88583.00
2023-01-07T06:49:32.229Z,88579.00
2023-01-07T06:50:32.215Z,88579.00
2023-01-07T06:51:32.186Z,88577.00
2023-01-07T06:52:32.170Z,88583.00
2023-01-07T06:53:32.150Z,88585.00
2023-01-07T06:54:32.138Z,88583.00
2023-01-07T06:55:32.122Z,88579.00
2023-01-07T06:56:32.088Z,88581.00
2023-01-07T06:57:32.068Z,88581.00
2023-01-07T06:58:32.060Z,88573.00
2023-01-07T06:59:32.035Z,88579.00
2023-01-07T07:00:32.015Z,88575.00
2023-01-07T07:01:32.198Z,88577.00
2023-01-07T07:02:32.127Z,88575.00
2023-01-07T07:03:31.946Z,88577.00
2023-01-07T07:04:31.926Z,88583.00
2023-01-07T07:05:31.913Z,88575.00
2023-01-07T07:06:31.888Z,88575.00
2023-01-07T07:07:31.850Z,88571.00
2023-01-07T07:08:31.828Z,88579.00
2023-01-07T07:09:31.796Z,88573.00
2023-01-07T07:10:31.782Z,88573.00
2023-01-07T07:11:31.751Z,88577.00
2023-01-07T07:12:31.719Z,88577.00
2023-01-07T07:13:31.693Z,88571.00
2023-01-07T07:14:31.674Z,88567.00
2023-01-07T07:15:31.692Z,88573.00
2023-01-07T07:16:32.794Z,88577.00
2023-01-07T07:17:31.699Z,88583.00
2023-01-07T07:18:31.589Z,88571.00
2023-01-07T07:19:31.560Z,88573.00
2023-01-07T07:20:31.539Z,88579.00
2023-01-07T07:21:31.517Z,88581.00
2023-01-07T07:22:31.502Z,88571.00
2023-01-07T07:23:31.462Z,88569.00
2023-01-07T07:24:31.474Z,88575.00
2023-01-07T07:25:31.430Z,88569.00
2023-01-07T07:26:31.409Z,88569.00
2023-01-07T07:27:31.375Z,88571.00
2023-01-07T07:28:31.372Z,88569.00
2023-01-07T07:29:31.338Z,88564.00
2023-01-07T07:30:47.064Z,88573.00
2023-01-07T07:31:32.323Z,88566.00
2023-01-07T07:32:31.269Z,88566.00
2023-01-07T07:33:31.349Z,88564.00
2023-01-07T07:34:31.220Z,88566.00
2023-01-07T07:35:31.205Z,88566.00
2023-01-07T07:36:31.184Z,88560.00
2023-01-07T07:37:31.163Z,88562.00
2023-01-07T07:38:31.135Z,88556.00
2023-01-07T07:39:31.114Z,88556.00
2023-01-07T07:40:31.094Z,88556.00
2023-01-07T07:41:31.071Z,88556.00
2023-01-07T07:42:31.052Z,88560.00
2023-01-07T07:43:31.019Z,88556.00
2023-01-07T07:44:30.998Z,88550.00
2023-01-07T07:45:30.974Z,88556.00
2023-01-07T07:46:30.977Z,88558.00
2023-01-07T07:47:30.928Z,88558.00
2023-01-07T07:48:30.920Z,88554.00
2023-01-07T07:49:31.002Z,88558.00
2023-01-07T07:50:30.881Z,88560.00
2023-01-07T07:51:30.856Z,88552.00
2023-01-07T07:52:30.840Z,88556.00
2023-01-07T07:53:30.824Z,88560.00
2023-01-07T07:54:30.803Z,88556.00
2023-01-07T07:55:30.789Z,88550.00
2023-01-07T07:56:30.768Z,88546.00
2023-01-07T07:57:30.743Z,88548.00
2023-01-07T07:58:30.731Z,88550.00
2023-01-07T07:59:30.709Z,88552.00
2023-01-07T08:00:30.702Z,88552.00
2023-01-07T08:01:30.759Z,88548.00
2023-01-07T08:02:30.698Z,88548.00
2023-01-07T08:03:30.761Z,88554.00
2023-01-07T08:04:30.621Z,88556.00
2023-01-07T08:05:30.699Z,88550.00
2023-01-07T08:06:30.592Z,88556.00
2023-01-07T08:07:32.733Z,88544.00
2023-01-07T08:08:30.551Z,88542.00
2023-01-07T08:09:30.543Z,88552.00
2023-01-07T08:10:30.523Z,88552.00
2023-01-07T08:11:30.500Z,88550.00
2023-01-07T08:12:30.480Z,88548.00
2023-01-07T08:13:30.447Z,88550.00
2023-01-07T08:14:30.429Z,88550.00
2023-01-07T08:15:30.403Z,88560.00
2023-01-07T08:16:30.441Z,88560.00
2023-01-07T08:17:30.363Z,88552.00
2023-01-07T08:18:30.335Z,88550.00
2023-01-07T08:19:30.321Z,88544.00
2023-01-07T08:20:30.297Z,88552.00
2023-01-07T08:21:30.381Z,88556.00
2023-01-07T08:22:30.270Z,88552.00
2023-01-07T08:23:30.348Z,88548.00
2023-01-07T08:24:30.224Z,88544.00
2023-01-07T08:25:30.215Z,88550.00
2023-01-07T08:26:30.198Z,88554.00
2023-01-07T08:27:30.183Z,88558.00
2023-01-07T08:28:30.162Z,88548.00
2023-01-07T08:29:30.141Z,88548.00
2023-01-07T08:30:30.174Z,88546.00
2023-01-07T08:31:30.137Z,88540.00
2023-01-07T08:32:30.100Z,88542.00
2023-01-07T08:33:30.073Z,88544.00
2023-01-07T08:34:30.055Z,88544.00
2023-01-07T08:35:30.034Z,88546.00
2023-01-07T08:36:30.006Z,88550.00
2023-01-07T08:37:29.995Z,88550.00
2023-01-07T08:38:29.976Z,88542.00
2023-01-07T08:39:29.962Z,88542.00
2023-01-07T08:40:29.963Z,88538.00
2023-01-07T08:41:29.911Z,88540.00
2023-01-07T08:42:29.899Z,88540.00
2023-01-07T08:43:29.883Z,88546.00
2023-01-07T08:44:29.856Z,88540.00
2023-01-07T08:45:29.849Z,88532.00
2023-01-07T08:46:29.885Z,88540.00
2023-01-07T08:47:29.812Z,88536.00
2023-01-07T08:48:29.788Z,88542.00
2023-01-07T08:49:29.770Z,88528.00
2023-01-07T08:50:29.791Z,88528.00
2023-01-07T08:51:29.724Z,88524.00
2023-01-07T08:52:29.715Z,88526.00
2023-01-07T08:53:29.794Z,88536.00
2023-01-07T08:54:29.674Z,88534.00
2023-01-07T08:55:29.660Z,88536.00
2023-01-07T08:56:29.655Z,88530.00
2023-01-07T08:57:29.627Z,88546.00
2023-01-07T08:58:29.622Z,88520.00
2023-01-07T08:59:29.593Z,88530.00
2023-01-07T09:00:29.592Z,88534.00
2023-01-07T09:01:29.691Z,88520.00
2023-01-07T09:02:29.569Z,88534.00
2023-01-07T09:03:29.513Z,88530.00
2023-01-07T09:04:29.504Z,88518.00
2023-01-07T09:05:29.480Z,88530.00
2023-01-07T09:06:29.470Z,88530.00
2023-01-07T09:07:29.460Z,88524.00
2023-01-07T09:08:29.509Z,88522.00
2023-01-07T09:09:29.512Z,88522.00
2023-01-07T09:10:29.405Z,88512.00
2023-01-07T09:11:29.383Z,88522.00
2023-01-07T09:12:29.369Z,88522.00
2023-01-07T09:13:29.348Z,88518.00
2023-01-07T09:14:29.328Z,88520.00
2023-01-07T09:15:29.326Z,88522.00
2023-01-07T09:16:29.358Z,88522.00
2023-01-07T09:17:29.296Z,88526.00
2023-01-07T09:18:29.265Z,88522.00
2023-01-07T09:19:29.248Z,88512.00
2023-01-07T09:20:29.227Z,88526.00
2023-01-07T09:21:29.210Z,88528.00
2023-01-07T09:22:29.186Z,88524.00
2023-01-07T09:23:29.174Z,88526.00
2023-01-07T09:24:29.170Z,88522.00
2023-01-07T09:25:29.235Z,88522.00
2023-01-07T09:26:29.123Z,88518.00
2023-01-07T09:27:29.118Z,88524.00
2023-01-07T09:28:29.098Z,88532.00
2023-01-07T09:29:29.092Z,88528.00
2023-01-07T09:30:29.060Z,88524.00
2023-01-07T09:31:29.064Z,88520.00
2023-01-07T09:32:29.028Z,88520.00
2023-01-07T09:33:29.013Z,88516.00
2023-01-07T09:34:28.997Z,88524.00
2023-01-07T09:35:28.997Z,88518.00
2023-01-07T09:36:28.970Z,88520.00
2023-01-07T09:37:28.955Z,88516.00
2023-01-07T09:38:28.963Z,88522.00
2023-01-07T09:39:28.923Z,88516.00
2023-01-07T09:40:28.899Z,88524.00
2023-01-07T09:41:28.968Z,88516.00
2023-01-07T09:42:28.862Z,88522.00
2023-01-07T09:43:58.873Z,88516.00
2023-01-07T09:44:28.827Z,88514.00
2023-01-07T09:45:28.822Z,88518.00
2023-01-07T09:46:28.789Z,88530.00
2023-01-07T09:47:28.776Z,88512.00
2023-01-07T09:48:28.748Z,88522.00
2023-01-07T09:49:28.737Z,88514.00
2023-01-07T09:50:28.716Z,88516.00
2023-01-07T09:51:28.693Z,88512.00
2023-01-07T09:52:28.670Z,88512.00
2023-01-07T09:53:28.662Z,88518.00
2023-01-07T09:54:28.639Z,88512.00
2023-01-07T09:55:28.606Z,88507.00
2023-01-07T09:56:28.586Z,88507.00
2023-01-07T09:57:28.673Z,88511.00
2023-01-07T09:58:28.534Z,88507.00
2023-01-07T09:59:28.527Z,88503.00
2023-01-07T10:00:28.494Z,88507.00
2023-01-07T10:01:28.526Z,88511.00
2023-01-07T10:02:28.483Z,88499.00
2023-01-07T10:03:28.416Z,88503.00
2023-01-07T10:04:28.404Z,88501.00
2023-01-07T10:05:28.365Z,88501.00
2023-01-07T10:06:42.277Z,88503.00
2023-01-07T10:07:28.319Z,88503.00
2023-01-07T10:08:30.837Z,88499.00
2023-01-07T10:09:28.280Z,88499.00
2023-01-07T10:10:28.250Z,88489.00
2023-01-07T10:11:28.232Z,88483.00
2023-01-07T10:12:28.194Z,88483.00
2023-01-07T10:13:28.263Z,88489.00
2023-01-07T10:14:28.169Z,88485.00
2023-01-07T10:15:28.139Z,88477.00
2023-01-07T10:16:28.140Z,88485.00
2023-01-07T10:17:28.098Z,88483.00
2023-01-07T10:18:28.077Z,88481.00
2023-01-07T10:19:28.062Z,88475.00
2023-01-07T10:20:28.035Z,88475.00
2023-01-07T10:21:28.004Z,88475.00
2023-01-07T10:22:27.985Z,88477.00
2023-01-07T10:23:27.968Z,88466.00
2023-01-07T10:24:27.947Z,88475.00
2023-01-07T10:25:27.916Z,88466.00
2023-01-07T10:26:27.892Z,88458.00
2023-01-07T10:27:27.876Z,88464.00
2023-01-07T10:28:27.861Z,88456.00
2023-01-07T10:29:27.920Z,88462.00
2023-01-07T10:30:27.810Z,88456.00
2023-01-07T10:31:27.819Z,88462.00
2023-01-07T10:32:27.758Z,88462.00
2023-01-07T10:33:27.734Z,88452.00
2023-01-07T10:34:27.719Z,88456.00
2023-01-07T10:35:27.715Z,88449.00
2023-01-07T10:36:27.667Z,88445.00
2023-01-07T10:37:27.644Z,88452.00
2023-01-07T10:38:27.626Z,88445.00
2023-01-07T10:39:27.619Z,88437.00
2023-01-07T10:40:27.572Z,88441.00
2023-01-07T10:41:27.568Z,88435.00
2023-01-07T10:42:27.537Z,88435.00
2023-01-07T10:43:27.511Z,88441.00
2023-01-07T10:44:27.482Z,88439.00
2023-01-07T10:45:27.587Z,88433.00
2023-01-07T10:46:27.442Z,88443.00
2023-01-07T10:47:27.417Z,88431.00
2023-01-07T10:48:27.390Z,88429.00
2023-01-07T10:49:27.368Z,88431.00
2023-01-07T10:50:27.344Z,88419.00
2023-01-07T10:51:27.332Z,88425.00
2023-01-07T10:52:27.293Z,88425.00
2023-01-07T10:53:27.279Z,88421.00
2023-01-07T10:54:27.245Z,88417.00
2023-01-07T10:55:27.230Z,88423.00
2023-01-07T10:56:27.200Z,88415.00
2023-01-07T10:57:27.179Z,88405.00
2023-01-07T10:58:27.156Z,88409.00
2023-01-07T10:59:27.132Z,88415.00
2023-01-07T11:00:27.144Z,88413.00
2023-01-07T11:01:27.350Z,88403.00
2023-01-07T11:02:27.339Z,88399.00
2023-01-07T11:03:27.040Z,88403.00
2023-01-07T11:04:27.018Z,88401.00
2023-01-07T11:05:27.005Z,88397.00
2023-01-07T11:06:26.975Z,88403.00
2023-01-07T11:07:26.955Z,88396.00
2023-01-07T11:08:26.930Z,88394.00
2023-01-07T11:09:26.914Z,88397.00
2023-01-07T11:10:26.901Z,88401.00
2023-01-07T11:11:26.873Z,88399.00
2023-01-07T11:12:26.850Z,88401.00
2023-01-07T11:13:26.828Z,88399.00
2023-01-07T11:14:26.814Z,88401.00
2023-01-07T11:15:26.801Z,88396.00
2023-01-07T11:16:26.830Z,88396.00
2023-01-07T11:17:26.841Z,88397.00
2023-01-07T11:18:26.724Z,88396.00
2023-01-07T11:19:26.704Z,88392.00
2023-01-07T11:20:26.719Z,88403.00
2023-01-07T11:21:43.337Z,88396.00
2023-01-07T11:22:27.629Z,88390.00
2023-01-07T11:23:26.617Z,88403.00
2023-01-07T11:24:26.598Z,88392.00
2023-01-07T11:25:26.601Z,88394.00
2023-01-07T11:26:26.555Z,88394.00
2023-01-07T11:27:26.531Z,88397.00
2023-01-07T11:28:26.502Z,88394.00
2023-01-07T11:29:26.468Z,88384.00
2023-01-07T11:30:26.447Z,88384.00
2023-01-07T11:31:26.431Z,88382.00
2023-01-07T11:32:26.442Z,88388.00
2023-01-07T11:34:01.451Z,88384.00
2023-01-07T11:34:27.353Z,88386.00
2023-01-07T11:35:26.332Z,88378.00
2023-01-07T11:36:26.318Z,88374.00
2023-01-07T11:37:26.325Z,88380.00
2023-01-07T11:38:26.271Z,88382.00
2023-01-07T11:39:26.271Z,88380.00
2023-01-07T11:40:26.232Z,88376.00
2023-01-07T11:41:26.222Z,88376.00
2023-01-07T11:42:26.202Z,88364.00
2023-01-07T11:43:26.170Z,88364.00
2023-01-07T11:44:26.141Z,88368.00
2023-01-07T11:45:26.215Z,88362.00